createdAt,value
2022-10-05T00:01:28.900Z,6.22
2022-10-05T00:04:21.628Z,5.88
2022-10-05T00:07:00.728Z,6.93
2022-10-05T00:09:32.324Z,6.22
2022-10-05T00:11:59.191Z,6.00
2022-10-05T00:14:33.169Z,6.13
2022-10-05T00:17:02.056Z,6.30
2022-10-05T00:19:36.276Z,6.22
2022-10-05T00:22:08.823Z,6.00
2022-10-05T00:24:35.871Z,5.93
2022-10-05T00:27:22.722Z,5.90
2022-10-05T00:29:52.694Z,5.63
2022-10-05T00:32:19.681Z,5.53
2022-10-05T00:34:47.454Z,5.45
2022-10-05T00:37:14.619Z,4.95
2022-10-05T00:39:42.827Z,5.57
2022-10-05T00:42:44.039Z,4.88
2022-10-05T00:45:25.731Z,4.60
2022-10-05T00:48:23.215Z,5.55
2022-10-05T00:51:20.458Z,5.15
2022-10-05T00:54:17.492Z,4.30
2022-10-05T00:56:45.318Z,4.30
2022-10-05T00:59:47.642Z,4.82
2022-10-05T01:02:44.243Z,4.68
2022-10-05T01:05:41.488Z,4.57
2022-10-05T01:08:52.780Z,4.28
2022-10-05T01:11:58.244Z,4.32
2022-10-05T01:15:13.248Z,4.18
2022-10-05T01:18:12.976Z,4.78
2022-10-05T01:20:55.747Z,4.03
2022-10-05T01:23:37.484Z,4.22
2022-10-05T01:27:10.556Z,4.22
2022-10-05T01:29:56.671Z,4.53
2022-10-05T01:32:36.589Z,4.15
2022-10-05T01:35:53.468Z,4.40
2022-10-05T01:38:42.522Z,4.00
2022-10-05T01:41:14.695Z,5.32
2022-10-05T01:44:14.668Z,5.47
2022-10-05T01:47:06.744Z,5.78
2022-10-05T01:49:45.467Z,5.85
2022-10-05T01:52:33.091Z,6.22
2022-10-05T01:55:26.760Z,6.53
2022-10-05T01:58:31.736Z,6.95
2022-10-05T02:01:46.042Z,6.20
2022-10-05T02:05:00.394Z,6.90
2022-10-05T02:07:50.673Z,6.75
2022-10-05T02:10:41.965Z,6.82
2022-10-05T02:13:30.573Z,7.18
2022-10-05T02:16:10.108Z,6.70
2022-10-05T02:18:52.148Z,7.93
2022-10-05T02:21:21.199Z,7.07
2022-10-05T02:23:54.067Z,7.32
2022-10-05T02:26:22.168Z,7.78
2022-10-05T02:28:57.704Z,7.93
2022-10-05T02:31:50.484Z,7.28
2022-10-05T02:34:45.272Z,8.15
2022-10-05T02:37:43.371Z,7.82
2022-10-05T02:40:35.506Z,7.57
2022-10-05T02:43:38.916Z,7.93
2022-10-05T02:46:30.911Z,7.20
2022-10-05T02:49:44.869Z,8.00
2022-10-05T02:52:23.091Z,7.32
2022-10-05T02:55:13.528Z,7.00
2022-10-05T02:58:10.232Z,7.35
2022-10-05T03:00:55.030Z,8.25
2022-10-05T03:03:41.779Z,8.55
2022-10-05T03:06:27.141Z,7.28
2022-10-05T03:09:09.308Z,7.22
2022-10-05T03:12:21.174Z,7.28
2022-10-05T03:15:07.915Z,6.68
2022-10-05T03:17:49.414Z,7.55
2022-10-05T03:20:28.180Z,6.95
2022-10-05T03:23:01.442Z,6.85
2022-10-05T03:25:36.661Z,7.13
2022-10-05T03:28:18.954Z,7.68
2022-10-05T03:31:10.184Z,7.07
2022-10-05T03:33:56.018Z,7.25
2022-10-05T03:36:52.328Z,6.93
2022-10-05T03:40:00.697Z,6.95
2022-10-05T03:43:02.613Z,7.53
2022-10-05T03:45:52.541Z,6.97
2022-10-05T03:48:35.692Z,6.68
2022-10-05T03:51:24.708Z,6.38
2022-10-05T03:54:00.012Z,6.40
2022-10-05T03:56:51.359Z,7.15
2022-10-05T03:59:32.554Z,7.20
2022-10-05T04:02:07.539Z,6.63
2022-10-05T04:04:48.952Z,7.80
2022-10-05T04:07:48.688Z,6.57
2022-10-05T04:10:32.514Z,6.00
2022-10-05T04:13:24.687Z,6.60
2022-10-05T04:16:21.152Z,6.30
2022-10-05T04:19:21.951Z,5.97
2022-10-05T04:22:15.592Z,6.47
2022-10-05T04:24:54.506Z,5.90
2022-10-05T04:27:33.223Z,5.97
2022-10-05T04:30:14.636Z,5.90
2022-10-05T04:32:57.252Z,5.82
2022-10-05T04:36:14.291Z,5.13
2022-10-05T04:39:05.431Z,4.88
2022-10-05T04:42:09.029Z,4.75
2022-10-05T04:45:11.536Z,5.03
2022-10-05T04:47:42.768Z,4.28
2022-10-05T04:51:08.880Z,4.68
2022-10-05T04:53:45.198Z,4.53
2022-10-05T04:56:29.911Z,4.50
2022-10-05T04:59:37.122Z,4.20
2022-10-05T05:02:14.439Z,3.85
2022-10-05T05:04:56.689Z,3.50
2022-10-05T05:07:52.336Z,3.60
2022-10-05T05:11:04.393Z,2.88
2022-10-05T05:14:17.435Z,2.80
2022-10-05T05:17:02.484Z,2.90
2022-10-05T05:19:45.198Z,2.25
2022-10-05T05:22:27.527Z,2.17
2022-10-05T05:25:19.232Z,1.90
2022-10-05T05:27:59.756Z,1.70
2022-10-05T05:31:00.495Z,1.70
2022-10-05T05:34:07.972Z,1.83
2022-10-05T05:37:02.380Z,1.75
2022-10-05T05:39:52.162Z,1.30
2022-10-05T05:42:36.847Z,1.40
2022-10-05T05:45:17.688Z,1.30
2022-10-05T05:47:53.772Z,1.20
2022-10-05T05:50:30.251Z,1.20
2022-10-05T05:53:27.187Z,1.20
2022-10-05T05:56:05.247Z,1.48
2022-10-05T05:58:42.821Z,1.45
2022-10-05T06:01:44.180Z,1.20
2022-10-05T06:04:44.996Z,1.50
2022-10-05T06:07:25.695Z,1.90
2022-10-05T06:10:24.819Z,1.42
2022-10-05T06:13:15.620Z,1.30
2022-10-05T06:15:54.661Z,1.50
2022-10-05T06:18:23.304Z,1.50
2022-10-05T06:21:06.839Z,1.88
2022-10-05T06:23:56.777Z,1.75
2022-10-05T06:27:21.421Z,1.67
2022-10-05T06:30:04.393Z,1.50
2022-10-05T06:32:44.412Z,1.80
2022-10-05T06:35:55.591Z,1.73
2022-10-05T06:39:04.993Z,1.85
2022-10-05T06:42:06.378Z,2.00
2022-10-05T06:45:20.742Z,1.88
2022-10-05T06:48:27.256Z,1.60
2022-10-05T06:51:47.972Z,1.50
2022-10-05T06:54:46.336Z,1.88
2022-10-05T06:57:42.663Z,1.63
2022-10-05T07:00:25.850Z,1.70
2022-10-05T07:03:23.460Z,2.08
2022-10-05T07:06:01.602Z,1.80
2022-10-05T07:08:51.664Z,1.60
2022-10-05T07:12:07.470Z,2.35
2022-10-05T07:15:09.287Z,2.30
2022-10-05T07:18:03.589Z,2.30
2022-10-05T07:20:58.911Z,2.35
2022-10-05T07:23:56.559Z,2.42
2022-10-05T07:26:49.432Z,2.33
2022-10-05T07:29:45.333Z,2.63
2022-10-05T07:32:41.068Z,2.53
2022-10-05T07:36:12.556Z,2.42
2022-10-05T07:38:52.547Z,2.30
2022-10-05T07:41:44.856Z,2.42
2022-10-05T07:44:33.444Z,2.42
2022-10-05T07:47:22.204Z,2.40
2022-10-05T07:50:01.650Z,2.50
2022-10-05T07:52:39.528Z,2.35
2022-10-05T07:55:21.520Z,2.97
2022-10-05T07:58:16.885Z,2.60
2022-10-05T08:01:11.753Z,2.40
2022-10-05T08:03:52.169Z,2.60
2022-10-05T08:06:38.039Z,2.42
2022-10-05T08:09:43.257Z,2.40
2022-10-05T08:12:23.687Z,2.88
2022-10-05T08:15:20.557Z,2.58
2022-10-05T08:18:19.137Z,2.75
2022-10-05T08:20:50.764Z,2.40
2022-10-05T08:23:44.946Z,2.53
2022-10-05T08:26:46.416Z,2.38
2022-10-05T08:29:42.423Z,2.88
2022-10-05T08:32:41.342Z,2.50
2022-10-05T08:35:25.797Z,2.55
2022-10-05T08:37:54.282Z,2.70
2022-10-05T08:41:11.847Z,2.60
2022-10-05T08:44:18.069Z,2.75
2022-10-05T08:47:20.191Z,2.95
2022-10-05T08:50:17.776Z,2.70
2022-10-05T08:53:30.603Z,2.65
2022-10-05T08:56:29.057Z,2.42
2022-10-05T08:59:49.880Z,2.50
2022-10-05T09:03:12.916Z,2.15
2022-10-05T09:06:25.204Z,2.25
2022-10-05T09:09:45.124Z,2.35
2022-10-05T09:12:58.476Z,1.83
2022-10-05T09:15:54.253Z,2.13
2022-10-05T09:18:40.753Z,2.13
2022-10-05T09:22:00.603Z,2.33
2022-10-05T09:24:57.339Z,2.30
2022-10-05T09:27:43.611Z,2.47
2022-10-05T09:30:56.796Z,1.70
2022-10-05T09:34:03.793Z,1.60
2022-10-05T09:37:20.005Z,1.48
2022-10-05T09:40:26.669Z,1.70
2022-10-05T09:43:17.225Z,2.25
2022-10-05T09:46:08.685Z,1.70
2022-10-05T09:49:22.056Z,1.60
2022-10-05T09:52:29.229Z,1.55
2022-10-05T09:55:25.454Z,1.67
2022-10-05T09:58:21.257Z,2.15
2022-10-05T10:01:09.014Z,2.15
2022-10-05T10:04:41.351Z,2.20
2022-10-05T10:07:46.223Z,2.70
2022-10-05T10:10:48.109Z,2.88
2022-10-05T10:13:35.585Z,2.63
2022-10-05T10:16:24.936Z,2.70
2022-10-05T10:19:25.182Z,2.55
2022-10-05T10:22:02.616Z,2.83
2022-10-05T10:25:12.372Z,2.40
2022-10-05T10:27:54.522Z,2.65
2022-10-05T10:30:48.459Z,2.72
2022-10-05T10:33:47.035Z,2.53
2022-10-05T10:36:58.485Z,1.92
2022-10-05T10:39:38.949Z,2.10
2022-10-05T10:42:37.788Z,2.20
2022-10-05T10:45:19.554Z,1.67
2022-10-05T10:48:05.072Z,1.67
2022-10-05T10:51:10.428Z,1.73
2022-10-05T10:54:21.936Z,1.60
2022-10-05T10:57:08.599Z,1.88
2022-10-05T10:59:59.324Z,2.20
2022-10-05T11:03:16.058Z,1.90
2022-10-05T11:06:07.740Z,2.08
2022-10-05T11:08:52.458Z,1.63
2022-10-05T11:11:24.860Z,2.50
2022-10-05T11:14:02.522Z,2.15
2022-10-05T11:17:21.321Z,2.03
2022-10-05T11:20:09.364Z,1.90
2022-10-05T11:22:51.861Z,2.20
2022-10-05T11:26:01.526Z,2.70
2022-10-05T11:29:05.468Z,2.40
2022-10-05T11:32:26.298Z,3.13
2022-10-05T11:35:36.987Z,3.45
2022-10-05T11:38:33.495Z,2.47
2022-10-05T11:41:27.932Z,2.47
2022-10-05T11:44:25.776Z,2.55
2022-10-05T11:47:08.593Z,2.22
2022-10-05T11:50:06.474Z,2.40
2022-10-05T11:52:44.783Z,2.50
2022-10-05T11:55:35.144Z,2.30
2022-10-05T11:58:20.102Z,2.40
2022-10-05T12:01:15.539Z,2.20
2022-10-05T12:03:45.770Z,2.10
2022-10-05T12:06:32.289Z,2.08
2022-10-05T12:09:20.622Z,2.15
2022-10-05T12:12:17.149Z,2.10
2022-10-05T12:15:07.783Z,2.10
2022-10-05T12:18:08.844Z,2.10
2022-10-05T12:20:54.092Z,2.20
2022-10-05T12:23:43.099Z,1.85
2022-10-05T12:26:49.975Z,1.90
2022-10-05T12:29:52.016Z,2.10
2022-10-05T12:32:43.928Z,2.85
2022-10-05T12:35:51.755Z,2.00
2022-10-05T12:38:37.805Z,2.17
2022-10-05T12:41:41.635Z,2.15
2022-10-05T12:44:44.714Z,1.70
2022-10-05T12:47:53.901Z,1.70
2022-10-05T12:50:32.100Z,1.70
2022-10-05T12:53:42.143Z,1.90
2022-10-05T12:56:32.491Z,2.55
2022-10-05T12:59:17.588Z,2.10
2022-10-05T13:02:19.346Z,2.33
2022-10-05T13:05:10.999Z,2.22
2022-10-05T13:08:08.605Z,1.88
2022-10-05T13:11:15.027Z,2.08
2022-10-05T13:14:16.396Z,1.80
2022-10-05T13:17:00.333Z,1.90
2022-10-05T13:19:45.672Z,2.15
2022-10-05T13:22:39.443Z,2.08
2022-10-05T13:25:41.295Z,2.10
2022-10-05T13:28:23.626Z,2.08
2022-10-05T13:31:27.200Z,1.80
2022-10-05T13:34:07.337Z,1.92
2022-10-05T13:37:02.919Z,2.22
2022-10-05T13:39:55.761Z,2.03
2022-10-05T13:42:32.759Z,2.20
2022-10-05T13:45:24.525Z,2.00
2022-10-05T13:48:42.011Z,1.98
2022-10-05T13:51:22.126Z,2.00
2022-10-05T13:54:16.713Z,2.15
2022-10-05T13:56:53.942Z,2.15
2022-10-05T13:59:36.173Z,2.30
2022-10-05T14:02:11.887Z,2.33
2022-10-05T14:04:44.937Z,2.10
2022-10-05T14:07:38.447Z,2.00
2022-10-05T14:10:14.460Z,1.90
2022-10-05T14:12:45.629Z,1.98
2022-10-05T14:15:28.121Z,2.45
2022-10-05T14:17:55.013Z,1.75
2022-10-05T14:20:31.736Z,2.45
2022-10-05T14:23:05.809Z,2.47
2022-10-05T14:25:50.223Z,2.33
2022-10-05T14:28:38.374Z,2.13
2022-10-05T14:31:28.334Z,2.00
2022-10-05T14:33:55.184Z,2.13
2022-10-05T14:36:40.150Z,2.03
2022-10-05T14:39:13.443Z,2.28
2022-10-05T14:41:50.322Z,2.13
2022-10-05T14:44:33.890Z,2.20
2022-10-05T14:47:18.919Z,2.00
2022-10-05T14:50:15.961Z,2.20
2022-10-05T14:53:16.979Z,2.08
2022-10-05T14:56:18.500Z,2.58
2022-10-05T14:59:40.107Z,2.00
2022-10-05T15:03:03.550Z,1.85
2022-10-05T15:06:00.217Z,2.47
2022-10-05T15:09:17.352Z,1.70
2022-10-05T15:12:00.488Z,1.98
2022-10-05T15:14:33.024Z,1.98
2022-10-05T15:17:16.417Z,1.70
2022-10-05T15:20:06.137Z,1.70
2022-10-05T15:23:15.994Z,1.63
2022-10-05T15:26:07.685Z,1.90
2022-10-05T15:28:58.608Z,1.73
2022-10-05T15:31:44.579Z,1.80
2022-10-05T15:34:49.773Z,1.65
2022-10-05T15:37:41.973Z,1.50
2022-10-05T15:40:28.978Z,1.95
2022-10-05T15:43:04.364Z,1.48
2022-10-05T15:45:37.623Z,1.60
2022-10-05T15:48:49.174Z,1.48
2022-10-05T15:51:45.065Z,1.70
2022-10-05T15:54:40.746Z,1.33
2022-10-05T15:57:21.748Z,1.40
2022-10-05T16:00:00.436Z,1.70
2022-10-05T16:02:58.536Z,1.90
2022-10-05T16:05:56.745Z,1.70
2022-10-05T16:08:52.908Z,1.48
2022-10-05T16:11:45.231Z,1.65
2022-10-05T16:14:54.481Z,1.65
2022-10-05T16:17:47.811Z,1.50
2022-10-05T16:20:41.196Z,1.27
2022-10-05T16:23:38.980Z,2.03
2022-10-05T16:26:38.607Z,1.40
2022-10-05T16:29:30.139Z,1.60
2022-10-05T16:32:20.472Z,1.25
2022-10-05T16:35:00.987Z,1.60
2022-10-05T16:38:06.104Z,1.30
2022-10-05T16:41:02.107Z,1.35
2022-10-05T16:43:41.417Z,1.65
2022-10-05T16:46:34.824Z,1.40
2022-10-05T16:49:25.839Z,1.60
2022-10-05T16:52:07.671Z,1.70
2022-10-05T16:54:47.626Z,1.65
2022-10-05T16:57:24.177Z,1.83
2022-10-05T17:00:15.623Z,1.40
2022-10-05T17:03:05.207Z,1.65
2022-10-05T17:06:08.704Z,1.60
2022-10-05T17:08:47.229Z,1.63
2022-10-05T17:11:53.181Z,1.60
2022-10-05T17:14:36.497Z,1.92
2022-10-05T17:17:32.713Z,1.50
2022-10-05T17:20:14.325Z,1.88
2022-10-05T17:23:04.403Z,1.58
2022-10-05T17:26:22.472Z,2.00
2022-10-05T17:28:51.974Z,1.98
2022-10-05T17:31:23.893Z,1.70
2022-10-05T17:33:59.564Z,1.63
2022-10-05T17:36:49.434Z,2.13
2022-10-05T17:39:46.286Z,1.85
2022-10-05T17:42:31.127Z,1.90
2022-10-05T17:45:20.926Z,1.90
2022-10-05T17:48:04.057Z,2.03
2022-10-05T17:51:01.605Z,2.10
2022-10-05T17:54:01.880Z,1.70
2022-10-05T17:56:55.900Z,2.55
2022-10-05T17:59:57.564Z,2.03
2022-10-05T18:02:42.729Z,1.95
2022-10-05T18:05:13.676Z,1.88
2022-10-05T18:07:48.043Z,1.95
2022-10-05T18:10:29.691Z,1.65
2022-10-05T18:12:59.366Z,1.95
2022-10-05T18:15:26.021Z,2.05
2022-10-05T18:18:34.247Z,2.10
2022-10-05T18:21:25.487Z,1.80
2022-10-05T18:23:56.823Z,1.67
2022-10-05T18:26:45.176Z,1.88
2022-10-05T18:30:00.468Z,1.80
2022-10-05T18:33:03.061Z,2.13
2022-10-05T18:36:05.780Z,2.13
2022-10-05T18:38:41.559Z,2.20
2022-10-05T18:41:22.700Z,2.22
2022-10-05T18:44:31.665Z,2.20
2022-10-05T18:47:45.143Z,1.80
2022-10-05T18:50:39.121Z,2.08
2022-10-05T18:53:40.658Z,2.10
2022-10-05T18:56:43.353Z,2.10
2022-10-05T18:59:54.403Z,1.98
2022-10-05T19:02:36.223Z,1.90
2022-10-05T19:05:48.460Z,2.35
2022-10-05T19:08:57.424Z,2.08
2022-10-05T19:11:38.293Z,2.58
2022-10-05T19:14:57.435Z,2.30
2022-10-05T19:17:49.028Z,2.42
2022-10-05T19:20:50.952Z,2.50
2022-10-05T19:23:53.701Z,2.42
2022-10-05T19:26:44.026Z,2.15
2022-10-05T19:29:34.385Z,1.90
2022-10-05T19:32:55.672Z,3.05
2022-10-05T19:35:45.631Z,1.65
2022-10-05T19:38:41.271Z,1.20
2022-10-05T19:41:22.643Z,0.93
2022-10-05T19:44:22.919Z,1.30
2022-10-05T19:47:18.628Z,0.70
2022-10-05T19:49:55.260Z,0.50
2022-10-05T19:52:28.407Z,0.57
2022-10-05T19:55:15.934Z,0.60
2022-10-05T19:58:13.856Z,0.60
2022-10-05T20:00:42.263Z,0.60
2022-10-05T20:03:19.203Z,0.40
2022-10-05T20:05:46.080Z,0.40
2022-10-05T20:08:19.637Z,0.50
2022-10-05T20:11:27.120Z,0.70
2022-10-05T20:13:54.830Z,0.80
2022-10-05T20:16:51.450Z,0.70
2022-10-05T20:19:35.942Z,0.82
2022-10-05T20:22:29.344Z,0.77
2022-10-05T20:25:03.163Z,0.57
2022-10-05T20:27:45.608Z,0.68
2022-10-05T20:30:22.587Z,0.80
2022-10-05T20:32:51.679Z,0.85
2022-10-05T20:35:23.556Z,0.88
2022-10-05T20:37:50.411Z,0.95
2022-10-05T20:40:18.702Z,0.93
2022-10-05T20:42:46.245Z,0.88
2022-10-05T20:45:13.965Z,1.00
2022-10-05T20:47:42.013Z,1.23
2022-10-05T20:50:10.690Z,0.68
2022-10-05T20:52:38.250Z,1.10
2022-10-05T20:55:09.736Z,0.70
2022-10-05T20:57:42.141Z,0.85
2022-10-05T21:00:12.396Z,0.50
2022-10-05T21:02:39.884Z,0.50
2022-10-05T21:05:07.909Z,0.60
2022-10-05T21:07:35.081Z,0.40
2022-10-05T21:10:03.582Z,0.40
2022-10-05T21:12:30.511Z,0.32
2022-10-05T21:14:59.131Z,0.30
2022-10-05T21:17:26.868Z,0.50
2022-10-05T21:19:53.583Z,0.35
2022-10-05T21:22:20.353Z,0.40
2022-10-05T21:24:47.253Z,0.60
2022-10-05T21:27:14.494Z,0.43
2022-10-05T21:29:41.346Z,0.43
2022-10-05T21:32:11.231Z,0.40
2022-10-05T21:34:39.224Z,0.30
2022-10-05T21:37:06.744Z,0.45
2022-10-05T21:39:35.001Z,0.47
2022-10-05T21:42:01.984Z,0.40
2022-10-05T21:44:28.793Z,0.40
2022-10-05T21:46:56.501Z,0.40
2022-10-05T21:49:24.835Z,0.40
2022-10-05T21:51:51.764Z,0.70
2022-10-05T21:54:22.720Z,0.55
2022-10-05T21:56:57.236Z,0.40
2022-10-05T21:59:30.568Z,0.43
2022-10-05T22:01:57.640Z,0.60
2022-10-05T22:04:24.783Z,0.40
2022-10-05T22:06:51.524Z,0.80
2022-10-05T22:09:18.256Z,0.47
2022-10-05T22:11:49.089Z,0.60
2022-10-05T22:14:16.332Z,0.45
2022-10-05T22:16:44.837Z,0.47
2022-10-05T22:19:17.913Z,1.00
2022-10-05T22:21:44.643Z,0.50
2022-10-05T22:24:11.687Z,0.98
2022-10-05T22:26:41.648Z,0.75
2022-10-05T22:29:09.511Z,0.50
2022-10-05T22:31:37.784Z,0.60
2022-10-05T22:34:04.767Z,0.70
2022-10-05T22:36:34.515Z,1.10
2022-10-05T22:39:01.233Z,1.02
2022-10-05T22:41:28.056Z,1.00
2022-10-05T22:43:54.818Z,0.95
2022-10-05T22:46:21.875Z,0.80
2022-10-05T22:48:48.604Z,1.10
2022-10-05T22:51:15.589Z,1.23
2022-10-05T22:53:42.338Z,1.45
2022-10-05T22:56:12.859Z,0.80
2022-10-05T22:58:41.204Z,1.00
2022-10-05T23:01:15.467Z,1.42
2022-10-05T23:03:42.752Z,1.25
2022-10-05T23:06:13.959Z,0.85
2022-10-05T23:08:41.895Z,0.90
2022-10-05T23:11:20.517Z,1.27
2022-10-05T23:13:47.871Z,1.10
2022-10-05T23:16:18.320Z,1.33
2022-10-05T23:18:48.692Z,1.20
2022-10-05T23:21:16.116Z,1.30
2022-10-05T23:23:50.875Z,1.70
2022-10-05T23:26:21.717Z,1.20
2022-10-05T23:28:49.128Z,1.60
2022-10-05T23:31:22.845Z,1.52
2022-10-05T23:33:50.717Z,1.30
2022-10-05T23:36:26.848Z,1.10
2022-10-05T23:38:54.300Z,2.13
2022-10-05T23:41:21.248Z,1.35
2022-10-05T23:43:48.149Z,1.20
2022-10-05T23:46:15.102Z,1.85
2022-10-05T23:48:41.940Z,1.60
2022-10-05T23:51:12.542Z,1.55
2022-10-05T23:53:39.573Z,1.63
2022-10-05T23:56:06.781Z,1.55
2022-10-05T23:58:33.615Z,1.42
